Terminal Aerodrome Forecast
Issued by NWS

Home | Current Version | Previous Version | Text Only | Print | Product List | Glossary On
Versions: 1 2 3 4 5 6 7 8 9 10 11 12
983
FTUS45 KRIW 201130
TAFBPI
TAF
KBPI 201130Z 2012/2112 31007KT P6SM VCSH SCT025 OVC050
      TEMPO 2015/2018 3SM -SN OVC025
     FM201800 35009KT 1 1/2SM -SN OVC015
     FM210800 36009KT P6SM VCSH SCT020 BKN050=

USA.gov is the U.S. government's official web portal to all federal, state and local government web resources and services.